createdAt,value
2023-02-14T00:00:07.822Z,376.63
2023-02-14T00:00:18.840Z,376.65
2023-02-14T00:00:30.815Z,376.69
2023-02-14T00:00:41.822Z,376.75
2023-02-14T00:00:52.825Z,376.76
2023-02-14T00:01:04.807Z,376.81
2023-02-14T00:01:15.814Z,376.87
2023-02-14T00:01:26.819Z,376.88
2023-02-14T00:01:38.808Z,376.93
2023-02-14T00:01:49.807Z,376.94
2023-02-14T00:02:00.805Z,376.95
2023-02-14T00:02:12.819Z,376.98
2023-02-14T00:02:24.833Z,377.03
2023-02-14T00:02:36.805Z,377.04
2023-02-14T00:02:47.863Z,377.05
2023-02-14T00:02:58.831Z,377.13
2023-02-14T00:03:10.914Z,377.13
2023-02-14T00:03:22.803Z,377.15
2023-02-14T00:03:33.804Z,377.18
2023-02-14T00:03:44.806Z,377.16
2023-02-14T00:03:55.817Z,377.17
2023-02-14T00:04:06.944Z,377.15
2023-02-14T00:04:18.888Z,377.17
2023-02-14T00:04:29.870Z,377.14
2023-02-14T00:04:40.871Z,377.14
2023-02-14T00:04:52.886Z,377.12
2023-02-14T00:05:03.828Z,377.09
2023-02-14T00:05:15.808Z,377.09
2023-02-14T00:05:26.830Z,377.08
2023-02-14T00:05:37.837Z,377.06
2023-02-14T00:05:57.496Z,377.00
2023-02-14T00:06:00.818Z,376.99
2023-02-14T00:06:11.835Z,376.95
2023-02-14T00:06:23.805Z,376.91
2023-02-14T00:06:34.813Z,376.91
2023-02-14T00:06:45.825Z,376.87
2023-02-14T00:06:57.813Z,376.86
2023-02-14T00:07:08.818Z,376.82
2023-02-14T00:07:19.816Z,376.79
2023-02-14T00:07:31.796Z,376.74
2023-02-14T00:07:42.817Z,376.72
2023-02-14T00:07:53.825Z,376.69
2023-02-14T00:08:04.818Z,376.69
2023-02-14T00:08:16.815Z,376.65
2023-02-14T00:08:27.822Z,376.62
2023-02-14T00:08:39.806Z,376.60
2023-02-14T00:08:51.811Z,376.59
2023-02-14T00:09:02.811Z,376.59
2023-02-14T00:09:14.825Z,376.54
2023-02-14T00:09:26.827Z,376.54
2023-02-14T00:09:37.826Z,376.54
2023-02-14T00:09:49.798Z,376.53
2023-02-14T00:10:00.799Z,376.53
2023-02-14T00:10:11.799Z,376.53
2023-02-14T00:10:22.821Z,376.50
2023-02-14T00:10:34.817Z,376.56
2023-02-14T00:10:45.819Z,376.51
2023-02-14T00:10:57.170Z,376.57
2023-02-14T00:11:07.794Z,376.54
2023-02-14T00:11:18.812Z,376.59
2023-02-14T00:11:29.825Z,376.62
2023-02-14T00:11:41.796Z,376.62
2023-02-14T00:11:53.798Z,376.64
2023-02-14T00:12:04.833Z,376.65
2023-02-14T00:12:15.831Z,376.66
2023-02-14T00:12:27.802Z,376.69
2023-02-14T00:12:38.809Z,376.68
2023-02-14T00:12:49.816Z,376.70
2023-02-14T00:13:01.826Z,376.75
2023-02-14T00:13:13.814Z,376.76
2023-02-14T00:13:24.823Z,376.78
2023-02-14T00:13:35.836Z,376.78
2023-02-14T00:13:47.816Z,376.81
2023-02-14T00:13:58.826Z,376.82
2023-02-14T00:14:10.807Z,376.82
2023-02-14T00:14:21.809Z,376.85
2023-02-14T00:14:32.809Z,376.90
2023-02-14T00:14:45.501Z,376.92
2023-02-14T00:14:56.807Z,376.94
2023-02-14T00:15:08.799Z,376.96
2023-02-14T00:15:19.798Z,376.99
2023-02-14T00:15:30.826Z,377.04
2023-02-14T00:15:42.804Z,377.09
2023-02-14T00:15:54.857Z,377.08
2023-02-14T00:16:06.776Z,377.10
2023-02-14T00:16:17.769Z,377.14
2023-02-14T00:16:28.832Z,377.15
2023-02-14T00:16:40.796Z,377.16
2023-02-14T00:16:52.779Z,377.18
2023-02-14T00:17:04.749Z,377.17
2023-02-14T00:17:15.742Z,377.20
2023-02-14T00:17:27.747Z,377.22
2023-02-14T00:17:38.741Z,377.26
2023-02-14T00:17:49.746Z,377.26
2023-02-14T00:18:00.779Z,377.29
2023-02-14T00:18:12.740Z,377.31
2023-02-14T00:18:23.804Z,377.34
2023-02-14T00:18:34.796Z,377.31
2023-02-14T00:18:46.770Z,377.36
2023-02-14T00:18:58.737Z,377.38
2023-02-14T00:19:10.751Z,377.37
2023-02-14T00:19:22.748Z,377.39
2023-02-14T00:19:33.758Z,377.37
2023-02-14T00:19:44.903Z,377.39
2023-02-14T00:19:56.738Z,377.39
2023-02-14T00:20:07.742Z,377.37
2023-02-14T00:20:19.734Z,377.38
2023-02-14T00:20:30.739Z,377.36
2023-02-14T00:20:41.737Z,377.38
2023-02-14T00:20:52.741Z,377.35
2023-02-14T00:21:03.761Z,377.37
2023-02-14T00:21:14.755Z,377.34
2023-02-14T00:21:25.753Z,377.36
2023-02-14T00:21:37.748Z,377.37
2023-02-14T00:21:48.754Z,377.35
2023-02-14T00:21:59.753Z,377.34
2023-02-14T00:22:11.747Z,377.32
2023-02-14T00:22:22.764Z,377.31
2023-02-14T00:22:33.765Z,377.30
2023-02-14T00:22:45.746Z,377.28
2023-02-14T00:22:56.748Z,377.25
2023-02-14T00:23:07.744Z,377.25
2023-02-14T00:23:18.751Z,377.23
2023-02-14T00:23:29.757Z,377.19
2023-02-14T00:23:40.756Z,377.17
2023-02-14T00:23:52.759Z,377.15
2023-02-14T00:24:03.757Z,377.15
2023-02-14T00:24:14.760Z,377.09
2023-02-14T00:24:26.737Z,377.08
2023-02-14T00:24:38.746Z,377.06
2023-02-14T00:24:49.752Z,377.04
2023-02-14T00:25:00.767Z,377.01
2023-02-14T00:25:12.758Z,376.97
2023-02-14T00:25:23.755Z,376.99
2023-02-14T00:25:34.727Z,376.91
2023-02-14T00:25:45.748Z,376.93
2023-02-14T00:25:56.752Z,376.96
2023-02-14T00:26:08.740Z,376.94
2023-02-14T00:26:20.736Z,376.94
2023-02-14T00:26:31.735Z,376.96
2023-02-14T00:26:42.717Z,376.93
2023-02-14T00:26:53.715Z,376.95
2023-02-14T00:27:04.722Z,376.96
2023-02-14T00:27:15.733Z,376.95
2023-02-14T00:27:26.727Z,376.96
2023-02-14T00:27:37.763Z,376.98
2023-02-14T00:27:49.741Z,376.96
2023-02-14T00:28:00.739Z,377.00
2023-02-14T00:28:11.748Z,377.03
2023-02-14T00:28:23.765Z,377.01
2023-02-14T00:28:34.763Z,377.03
2023-02-14T00:28:45.768Z,377.05
2023-02-14T00:28:57.780Z,377.05
2023-02-14T00:29:09.732Z,377.10
2023-02-14T00:29:20.745Z,377.10
2023-02-14T00:29:31.750Z,377.13
2023-02-14T00:29:42.745Z,377.15
2023-02-14T00:29:53.764Z,377.20
2023-02-14T00:30:05.777Z,377.25
2023-02-14T00:30:17.832Z,377.27
2023-02-14T00:30:28.895Z,377.32
2023-02-14T00:30:40.755Z,377.36
2023-02-14T00:30:51.768Z,377.40
2023-02-14T00:31:03.861Z,377.44
2023-02-14T00:31:15.841Z,377.48
2023-02-14T00:31:27.945Z,377.51
2023-02-14T00:31:39.980Z,377.56
2023-02-14T00:31:51.848Z,377.62
2023-02-14T00:32:03.875Z,377.65
2023-02-14T00:32:15.852Z,377.71
2023-02-14T00:32:26.774Z,377.71
2023-02-14T00:32:38.736Z,377.78
2023-02-14T00:32:49.777Z,377.82
2023-02-14T00:33:01.757Z,377.87
2023-02-14T00:33:12.758Z,377.88
2023-02-14T00:33:23.760Z,377.92
2023-02-14T00:33:34.773Z,377.97
2023-02-14T00:33:46.742Z,377.98
2023-02-14T00:33:57.736Z,378.01
2023-02-14T00:34:08.763Z,378.05
2023-02-14T00:34:20.750Z,378.06
2023-02-14T00:34:31.749Z,378.09
2023-02-14T00:35:07.534Z,378.14
2023-02-14T00:35:08.717Z,378.19
2023-02-14T00:35:19.749Z,378.23
2023-02-14T00:35:30.751Z,378.28
2023-02-14T00:35:41.764Z,378.29
2023-02-14T00:35:52.756Z,378.33
2023-02-14T00:36:03.758Z,378.34
2023-02-14T00:36:15.740Z,378.36
2023-02-14T00:36:26.740Z,378.37
2023-02-14T00:36:37.730Z,378.38
2023-02-14T00:36:48.765Z,378.42
2023-02-14T00:36:59.807Z,378.42
2023-02-14T00:37:11.774Z,378.44
2023-02-14T00:37:23.741Z,378.44
2023-02-14T00:37:34.748Z,378.45
2023-02-14T00:37:45.755Z,378.46
2023-02-14T00:37:56.787Z,378.45
2023-02-14T00:38:08.757Z,378.45
2023-02-14T00:38:19.783Z,378.47
2023-02-14T00:38:31.744Z,378.47
2023-02-14T00:38:43.763Z,378.44
2023-02-14T00:38:55.757Z,378.44
2023-02-14T00:39:06.762Z,378.44
2023-02-14T00:39:17.810Z,378.43
2023-02-14T00:39:29.765Z,378.41
2023-02-14T00:39:41.738Z,378.39
2023-02-14T00:39:52.768Z,378.37
2023-02-14T00:40:03.753Z,378.36
2023-02-14T00:40:14.773Z,378.31
2023-02-14T00:40:26.771Z,378.34
2023-02-14T00:40:38.765Z,378.34
2023-02-14T00:40:49.783Z,378.32
2023-02-14T00:41:01.747Z,378.32
2023-02-14T00:41:13.746Z,378.30
2023-02-14T00:41:24.756Z,378.31
2023-02-14T00:41:35.750Z,378.30
2023-02-14T00:41:47.742Z,378.30
2023-02-14T00:41:58.749Z,378.28
2023-02-14T00:42:09.756Z,378.30
2023-02-14T00:42:20.760Z,378.30
2023-02-14T00:42:31.755Z,378.28
2023-02-14T00:42:42.748Z,378.30
2023-02-14T00:42:54.735Z,378.29
2023-02-14T00:43:05.740Z,378.32
2023-02-14T00:43:16.750Z,378.31
2023-02-14T00:43:27.770Z,378.33
2023-02-14T00:43:39.744Z,378.34
2023-02-14T00:43:50.744Z,378.32
2023-02-14T00:44:02.776Z,378.33
2023-02-14T00:44:14.738Z,378.35
2023-02-14T00:44:25.722Z,378.36
2023-02-14T00:44:36.740Z,378.34
2023-02-14T00:44:47.733Z,378.37
2023-02-14T00:44:58.751Z,378.37
2023-02-14T00:45:10.735Z,378.40
2023-02-14T00:45:21.735Z,378.42
2023-02-14T00:45:32.734Z,378.42
2023-02-14T00:45:43.831Z,378.43
2023-02-14T00:45:55.900Z,378.41
2023-02-14T00:46:07.757Z,378.42
2023-02-14T00:46:18.789Z,378.42
2023-02-14T00:46:30.763Z,378.43
2023-02-14T00:46:42.786Z,378.40
2023-02-14T00:46:54.784Z,378.40
2023-02-14T00:47:06.753Z,378.43
2023-02-14T00:47:17.754Z,378.40
2023-02-14T00:47:29.743Z,378.41
2023-02-14T00:47:41.745Z,378.39
2023-02-14T00:47:52.753Z,378.41
2023-02-14T00:48:03.745Z,378.43
2023-02-14T00:48:14.766Z,378.41
2023-02-14T00:48:25.761Z,378.39
2023-02-14T00:48:36.750Z,378.43
2023-02-14T00:48:48.749Z,378.44
2023-02-14T00:49:00.750Z,378.42
2023-02-14T00:49:11.760Z,378.43
2023-02-14T00:49:22.757Z,378.45
2023-02-14T00:49:34.757Z,378.44
2023-02-14T00:49:45.761Z,378.43
2023-02-14T00:49:56.776Z,378.47
2023-02-14T00:50:08.743Z,378.50
2023-02-14T00:50:19.739Z,378.52
2023-02-14T00:50:30.746Z,378.51
2023-02-14T00:50:42.728Z,378.52
2023-02-14T00:50:53.727Z,378.52
2023-02-14T00:51:04.750Z,378.51
2023-02-14T00:51:16.745Z,378.54
2023-02-14T00:51:28.730Z,378.57
2023-02-14T00:51:39.737Z,378.58
2023-02-14T00:51:50.749Z,378.60
2023-02-14T00:52:02.752Z,378.59
2023-02-14T00:52:14.749Z,378.60
2023-02-14T00:52:25.760Z,378.59
2023-02-14T00:52:36.757Z,378.55
2023-02-14T00:52:47.757Z,378.56
2023-02-14T00:52:58.759Z,378.54
2023-02-14T00:53:10.780Z,378.52
2023-02-14T00:53:22.784Z,378.49
2023-02-14T00:53:34.750Z,378.49
2023-02-14T00:53:45.744Z,378.49
2023-02-14T00:53:56.764Z,378.48
2023-02-14T00:54:08.767Z,378.52
2023-02-14T00:54:19.759Z,378.49
2023-02-14T00:54:30.768Z,378.44
2023-02-14T00:54:42.774Z,378.44
2023-02-14T00:54:54.740Z,378.45
2023-02-14T00:55:05.734Z,378.44
2023-02-14T00:55:17.741Z,378.46
2023-02-14T00:55:28.766Z,378.41
2023-02-14T00:56:49.818Z,378.26
2023-02-14T00:57:00.833Z,378.24
2023-02-14T00:57:11.838Z,378.21
2023-02-14T00:57:22.838Z,378.19
2023-02-14T00:57:34.818Z,378.18
2023-02-14T00:57:45.821Z,378.21
2023-02-14T00:57:56.822Z,378.19
2023-02-14T00:58:34.895Z,378.15
2023-02-14T00:58:35.861Z,378.06
2023-02-14T00:58:47.823Z,378.06
2023-02-14T00:58:58.835Z,378.03
2023-02-14T00:59:10.825Z,378.02
2023-02-14T00:59:21.852Z,377.97
2023-02-14T00:59:33.830Z,377.96
2023-02-14T00:59:45.822Z,377.93
2023-02-14T00:59:56.831Z,377.92
2023-02-14T01:00:08.836Z,377.89
2023-02-14T01:00:19.835Z,377.87
2023-02-14T01:00:31.941Z,377.87
2023-02-14T01:00:42.846Z,377.87
2023-02-14T01:00:53.802Z,377.86
2023-02-14T01:01:04.871Z,377.86
2023-02-14T01:01:15.854Z,377.84
2023-02-14T01:01:26.949Z,377.81
2023-02-14T01:01:38.866Z,377.80
2023-02-14T01:01:50.835Z,377.81
2023-02-14T01:02:02.807Z,377.77
2023-02-14T01:02:13.828Z,377.79
2023-02-14T01:02:24.813Z,377.78
2023-02-14T01:02:35.867Z,377.78
2023-02-14T01:02:46.883Z,377.80
2023-02-14T01:02:57.877Z,377.81
2023-02-14T01:03:08.883Z,377.81
2023-02-14T01:03:20.866Z,377.80
2023-02-14T01:03:32.829Z,377.83
2023-02-14T01:03:43.826Z,377.84
2023-02-14T01:03:55.827Z,377.84
2023-02-14T01:04:06.835Z,377.87
2023-02-14T01:04:17.828Z,377.89
2023-02-14T01:04:28.826Z,377.92
2023-02-14T01:04:39.849Z,377.93
2023-02-14T01:04:51.811Z,377.99
2023-02-14T01:05:02.846Z,378.04
2023-02-14T01:05:14.809Z,378.05
2023-02-14T01:05:25.837Z,378.06
2023-02-14T01:05:37.817Z,378.12
2023-02-14T01:05:48.828Z,378.12
2023-02-14T01:05:59.826Z,378.13
2023-02-14T01:06:10.860Z,378.17
2023-02-14T01:06:22.721Z,378.17
2023-02-14T01:06:33.729Z,378.19
2023-02-14T01:06:44.731Z,378.23
2023-02-14T01:06:55.739Z,378.25
2023-02-14T01:07:06.742Z,378.24
2023-02-14T01:07:17.739Z,378.25
2023-02-14T01:07:28.773Z,378.28
2023-02-14T01:07:40.780Z,378.30
2023-02-14T01:07:51.772Z,378.30
2023-02-14T01:08:02.766Z,378.30
2023-02-14T01:08:13.767Z,378.30
2023-02-14T01:08:24.760Z,378.30
2023-02-14T01:08:35.770Z,378.31
2023-02-14T01:08:47.758Z,378.35
2023-02-14T01:08:58.765Z,378.36
2023-02-14T01:10:17.846Z,378.35
2023-02-14T01:10:29.853Z,378.39
2023-02-14T01:10:41.815Z,378.36
2023-02-14T01:10:53.812Z,378.37
2023-02-14T01:11:04.796Z,378.36
2023-02-14T01:11:15.799Z,378.35
2023-02-14T01:11:28.693Z,378.35
2023-02-14T01:11:37.817Z,378.35
2023-02-14T01:11:48.813Z,378.34
2023-02-14T01:12:00.821Z,378.33
2023-02-14T01:12:12.840Z,378.31
2023-02-14T01:12:23.841Z,378.30
2023-02-14T01:12:35.833Z,378.27
2023-02-14T01:12:47.807Z,378.24
2023-02-14T01:12:58.833Z,378.25
2023-02-14T01:13:09.841Z,378.23
2023-02-14T01:13:21.815Z,378.20
2023-02-14T01:13:32.803Z,378.19
2023-02-14T01:13:43.814Z,378.17
2023-02-14T01:13:54.821Z,378.14
2023-02-14T01:14:05.816Z,378.12
2023-02-14T01:14:16.824Z,378.13
2023-02-14T01:14:27.850Z,378.12
2023-02-14T01:14:39.803Z,378.11
2023-02-14T01:14:50.869Z,378.09
2023-02-14T01:15:02.850Z,378.08
2023-02-14T01:15:14.822Z,378.07
2023-02-14T01:15:25.840Z,378.05
2023-02-14T01:15:37.834Z,378.04
2023-02-14T01:15:48.832Z,378.04
2023-02-14T01:15:59.839Z,378.04
2023-02-14T01:16:11.852Z,378.03
2023-02-14T01:16:23.877Z,378.01
2023-02-14T01:16:34.865Z,378.00
2023-02-14T01:16:45.819Z,378.00
2023-02-14T01:16:56.834Z,378.02
2023-02-14T01:17:07.836Z,378.04
2023-02-14T01:17:19.826Z,378.08
2023-02-14T01:18:50.846Z,378.03
2023-02-14T01:19:01.853Z,378.06
2023-02-14T01:19:21.868Z,378.04
2023-02-14T01:19:25.830Z,378.06
2023-02-14T01:19:36.842Z,378.05
2023-02-14T01:19:47.833Z,378.07
2023-02-14T01:19:59.817Z,378.05
2023-02-14T01:20:10.816Z,378.04
2023-02-14T01:20:21.837Z,378.04
2023-02-14T01:20:32.876Z,378.04
2023-02-14T01:24:07.847Z,377.92
2023-02-14T01:24:19.816Z,377.91
2023-02-14T01:24:30.820Z,377.95
2023-02-14T01:24:42.845Z,377.93
2023-02-14T01:24:53.861Z,377.89
2023-02-14T01:25:05.826Z,377.86
2023-02-14T01:25:17.820Z,377.83
2023-02-14T01:25:28.829Z,377.81
2023-02-14T01:25:39.830Z,377.81
2023-02-14T01:25:51.811Z,377.80
2023-02-14T01:26:02.817Z,377.75
2023-02-14T01:26:13.811Z,377.71
2023-02-14T01:26:24.835Z,377.68
2023-02-14T01:26:35.835Z,377.68
2023-02-14T01:26:46.842Z,377.66
2023-02-14T01:26:58.809Z,377.63
2023-02-14T01:27:09.830Z,377.61
2023-02-14T01:27:21.834Z,377.59
2023-02-14T01:27:32.835Z,377.58
2023-02-14T01:27:44.818Z,377.56
2023-02-14T01:27:55.821Z,377.51
2023-02-14T01:28:06.829Z,377.49
2023-02-14T01:28:17.819Z,377.49
2023-02-14T01:28:28.831Z,377.47
2023-02-14T01:28:40.823Z,377.44
2023-02-14T01:28:52.809Z,377.44
2023-02-14T01:29:03.809Z,377.41
2023-02-14T01:29:14.806Z,377.37
2023-02-14T01:29:25.822Z,377.34
2023-02-14T01:29:37.815Z,377.34
2023-02-14T01:29:48.882Z,377.32
2023-02-14T01:30:00.917Z,377.35
2023-02-14T01:30:11.877Z,377.32
2023-02-14T01:30:22.870Z,377.33
2023-02-14T01:30:33.790Z,377.34
2023-02-14T01:30:44.832Z,377.33
2023-02-14T01:30:55.854Z,377.36
2023-02-14T01:31:06.908Z,377.33
2023-02-14T01:31:17.977Z,377.34
2023-02-14T01:31:29.003Z,377.33
2023-02-14T01:31:40.980Z,377.31
2023-02-14T01:31:52.889Z,377.34
2023-02-14T01:32:03.855Z,377.37
2023-02-14T01:32:14.951Z,377.36
2023-02-14T01:32:26.867Z,377.35
2023-02-14T01:32:38.829Z,377.36
2023-02-14T01:32:49.842Z,377.36
2023-02-14T01:33:00.850Z,377.34
2023-02-14T01:33:12.832Z,377.38
2023-02-14T01:33:24.816Z,377.39
2023-02-14T01:33:35.821Z,377.36
2023-02-14T01:33:46.819Z,377.37
2023-02-14T01:33:58.840Z,377.37
2023-02-14T01:34:09.851Z,377.35
2023-02-14T01:34:21.840Z,377.36
2023-02-14T01:34:33.826Z,377.36
2023-02-14T01:34:45.492Z,377.37
2023-02-14T01:34:55.840Z,377.36
2023-02-14T01:35:07.824Z,377.35
2023-02-14T01:35:18.853Z,377.33
2023-02-14T01:35:30.823Z,377.33
2023-02-14T01:35:41.831Z,377.35
2023-02-14T01:35:52.824Z,377.32
2023-02-14T01:36:03.825Z,377.34
2023-02-14T01:36:14.842Z,377.31
2023-02-14T01:36:25.839Z,377.32
2023-02-14T01:36:37.849Z,377.29
2023-02-14T01:36:49.825Z,377.31
2023-02-14T01:37:01.823Z,377.29
2023-02-14T01:37:12.836Z,377.30
2023-02-14T01:37:24.825Z,377.33
2023-02-14T01:37:36.824Z,377.36
2023-02-14T01:37:47.842Z,377.31
2023-02-14T01:37:58.839Z,377.28
2023-02-14T01:38:10.822Z,377.28
2023-02-14T01:38:21.840Z,377.27
2023-02-14T01:38:32.842Z,377.26
2023-02-14T01:38:44.821Z,377.27
2023-02-14T01:38:55.826Z,377.28
2023-02-14T01:39:06.830Z,377.25
2023-02-14T01:39:17.832Z,377.24
2023-02-14T01:39:28.843Z,377.27
2023-02-14T01:39:40.812Z,377.27
2023-02-14T01:39:51.840Z,377.29
2023-02-14T01:40:03.813Z,377.30
2023-02-14T01:40:14.815Z,377.33
2023-02-14T01:40:25.832Z,377.32
2023-02-14T01:40:36.835Z,377.31
2023-02-14T01:40:47.830Z,377.34
2023-02-14T01:40:59.107Z,377.34
2023-02-14T01:41:09.829Z,377.33
2023-02-14T01:41:21.812Z,377.32
2023-02-14T01:41:32.831Z,377.33
2023-02-14T01:41:43.841Z,377.32
2023-02-14T01:41:54.839Z,377.32
2023-02-14T01:42:05.833Z,377.34
2023-02-14T01:42:17.832Z,377.35
2023-02-14T01:42:28.820Z,377.34
2023-02-14T01:42:39.836Z,377.32
2023-02-14T01:42:51.849Z,377.31
2023-02-14T01:43:03.817Z,377.34
2023-02-14T01:43:14.821Z,377.33
2023-02-14T01:43:26.826Z,377.35
2023-02-14T01:43:37.822Z,377.34
2023-02-14T01:43:48.834Z,377.35
2023-02-14T01:43:59.873Z,377.35
2023-02-14T01:44:11.851Z,377.35
2023-02-14T01:44:22.840Z,377.39
2023-02-14T01:44:34.832Z,377.39
2023-02-14T01:44:45.831Z,377.41
2023-02-14T01:44:56.846Z,377.41
2023-02-14T01:45:07.810Z,377.42
2023-02-14T01:45:18.808Z,377.43
2023-02-14T01:45:29.848Z,377.41
2023-02-14T01:45:40.871Z,377.45
2023-02-14T01:45:51.851Z,377.47
2023-02-14T01:46:02.969Z,377.49
2023-02-14T01:46:14.853Z,377.48
2023-02-14T01:46:26.861Z,377.50
2023-02-14T01:46:38.844Z,377.52
2023-02-14T01:46:49.833Z,377.55
2023-02-14T01:47:00.829Z,377.57
2023-02-14T01:47:11.821Z,377.55
2023-02-14T01:47:22.829Z,377.55
2023-02-14T01:47:33.831Z,377.57
2023-02-14T01:47:44.834Z,377.60
2023-02-14T01:47:56.819Z,377.61
2023-02-14T01:48:07.841Z,377.63
2023-02-14T01:48:18.842Z,377.64
2023-02-14T01:48:30.831Z,377.66
2023-02-14T01:48:42.830Z,377.70
2023-02-14T01:48:53.820Z,377.74
2023-02-14T01:49:04.832Z,377.78
2023-02-14T01:49:16.824Z,377.81
2023-02-14T01:49:27.826Z,377.86
2023-02-14T01:49:38.814Z,377.88
2023-02-14T01:49:49.840Z,377.89
2023-02-14T01:50:00.858Z,377.93
2023-02-14T01:50:12.827Z,377.97
2023-02-14T01:50:24.834Z,377.98
2023-02-14T01:50:36.829Z,378.01
2023-02-14T01:50:47.824Z,378.02
2023-02-14T01:50:59.193Z,378.06
2023-02-14T01:51:09.805Z,378.09
2023-02-14T01:51:20.810Z,378.11
2023-02-14T01:51:31.800Z,378.14
2023-02-14T01:51:42.825Z,378.15
2023-02-14T01:51:54.850Z,378.17
2023-02-14T01:52:06.817Z,378.19
2023-02-14T01:52:17.817Z,378.19
2023-02-14T01:52:29.819Z,378.21
2023-02-14T01:52:41.824Z,378.28
2023-02-14T01:52:52.882Z,378.26
2023-02-14T01:53:04.848Z,378.28
2023-02-14T01:53:16.861Z,378.28
2023-02-14T01:53:27.847Z,378.27
2023-02-14T01:53:38.848Z,378.30
2023-02-14T01:53:50.830Z,378.30
2023-02-14T01:54:01.839Z,378.30
2023-02-14T01:54:12.842Z,378.29
2023-02-14T01:54:23.851Z,378.24
2023-02-14T01:54:34.844Z,378.26
2023-02-14T01:54:46.837Z,378.24
2023-02-14T01:54:57.831Z,378.25
2023-02-14T01:55:08.838Z,378.24
2023-02-14T01:55:19.841Z,378.20
2023-02-14T01:55:31.830Z,378.22
2023-02-14T01:55:42.822Z,378.20
2023-02-14T01:55:53.828Z,378.19
2023-02-14T01:56:05.809Z,378.20
2023-02-14T01:56:16.811Z,378.19
2023-02-14T01:56:27.834Z,378.19
2023-02-14T01:56:39.839Z,378.14
2023-02-14T01:56:51.839Z,378.16
2023-02-14T01:57:02.837Z,378.16
2023-02-14T01:57:14.838Z,378.14
2023-02-14T01:57:25.841Z,378.12
2023-02-14T01:57:37.813Z,378.11
2023-02-14T01:57:48.853Z,378.09
2023-02-14T01:58:00.823Z,378.06
2023-02-14T01:58:11.856Z,377.99
2023-02-14T01:58:23.875Z,378.01
2023-02-14T01:58:35.834Z,378.01
2023-02-14T01:58:46.832Z,378.04
2023-02-14T01:58:58.838Z,378.05
2023-02-14T01:59:10.835Z,378.06
2023-02-14T01:59:21.843Z,378.06
2023-02-14T01:59:47.531Z,378.09
2023-02-14T01:59:48.800Z,378.10
2023-02-14T01:59:59.819Z,378.14
2023-02-14T02:00:10.849Z,378.14
2023-02-14T02:00:22.852Z,378.16
2023-02-14T02:00:34.831Z,378.16
2023-02-14T02:00:45.857Z,378.15
2023-02-14T02:00:57.076Z,378.16
2023-02-14T02:01:07.819Z,378.15
2023-02-14T02:01:18.952Z,378.15
2023-02-14T02:01:30.867Z,378.16
2023-02-14T02:01:41.914Z,378.15
2023-02-14T02:01:53.900Z,378.16
2023-02-14T02:02:04.874Z,378.18
2023-02-14T02:02:15.845Z,378.23
2023-02-14T02:02:26.910Z,378.24
2023-02-14T02:02:37.854Z,378.25
2023-02-14T02:02:48.811Z,378.28
2023-02-14T02:02:59.819Z,378.27
2023-02-14T02:03:10.819Z,378.28
2023-02-14T02:03:21.852Z,378.29
2023-02-14T02:04:02.059Z,378.36
2023-02-14T02:04:02.844Z,378.39
2023-02-14T02:04:13.836Z,378.42
2023-02-14T02:04:24.838Z,378.44
2023-02-14T02:04:35.802Z,378.48
2023-02-14T02:04:46.811Z,378.50
2023-02-14T02:04:57.812Z,378.54
2023-02-14T02:05:08.825Z,378.56
2023-02-14T02:05:19.853Z,378.58
2023-02-14T02:05:30.853Z,378.61
2023-02-14T02:05:42.847Z,378.64
2023-02-14T02:05:53.852Z,378.67
2023-02-14T02:06:05.824Z,378.71
2023-02-14T02:06:16.860Z,378.74
2023-02-14T02:06:28.837Z,378.79
2023-02-14T02:06:39.835Z,378.81
2023-02-14T02:06:51.828Z,378.86
2023-02-14T02:07:03.834Z,378.87
2023-02-14T02:07:14.843Z,378.88
2023-02-14T02:07:26.821Z,378.89
2023-02-14T02:07:38.821Z,378.90
2023-02-14T02:07:49.818Z,378.94
2023-02-14T02:10:06.870Z,379.25
2023-02-14T02:10:17.850Z,379.27
2023-02-14T02:10:29.846Z,379.33
2023-02-14T02:10:40.865Z,379.33
2023-02-14T02:10:52.820Z,379.35
2023-02-14T02:11:03.814Z,379.35
2023-02-14T02:11:14.822Z,379.36
2023-02-14T02:11:25.820Z,379.34
2023-02-14T02:11:36.825Z,379.38
2023-02-14T02:11:47.856Z,379.36
2023-02-14T02:11:59.846Z,379.35
2023-02-14T02:12:10.839Z,379.32
2023-02-14T02:12:21.853Z,379.33
2023-02-14T02:12:33.836Z,379.28
2023-02-14T02:12:45.822Z,379.25
2023-02-14T02:12:56.838Z,379.23
2023-02-14T02:13:07.856Z,379.21
2023-02-14T02:13:18.854Z,379.20
2023-02-14T02:13:30.820Z,379.13
2023-02-14T02:13:41.817Z,379.11
2023-02-14T02:13:52.815Z,379.09
2023-02-14T02:14:03.836Z,379.07
2023-02-14T02:14:14.851Z,379.00
2023-02-14T02:14:26.845Z,378.97
2023-02-14T02:14:37.841Z,378.95
2023-02-14T02:14:48.851Z,378.92
2023-02-14T02:15:00.856Z,378.89
2023-02-14T02:15:12.835Z,378.84
2023-02-14T02:15:23.841Z,378.83
2023-02-14T02:15:34.846Z,378.79
2023-02-14T02:15:45.848Z,378.76
2023-02-14T02:15:57.826Z,378.72
2023-02-14T02:16:08.828Z,378.73
2023-02-14T02:16:19.875Z,378.70
2023-02-14T02:16:30.882Z,378.70
2023-02-14T02:16:41.904Z,378.66
2023-02-14T02:16:52.913Z,378.68
2023-02-14T02:17:03.847Z,378.65
2023-02-14T02:17:14.863Z,378.61
2023-02-14T02:17:26.853Z,378.63
2023-02-14T02:17:38.835Z,378.63
2023-02-14T02:19:10.842Z,378.58
2023-02-14T02:19:21.875Z,378.62
2023-02-14T02:19:33.855Z,378.61
2023-02-14T02:19:45.447Z,378.63
2023-02-14T02:19:56.856Z,378.61
2023-02-14T02:21:44.827Z,378.71
2023-02-14T02:21:55.835Z,378.74
2023-02-14T02:22:06.846Z,378.78
2023-02-14T02:24:50.852Z,378.95
2023-02-14T02:25:02.843Z,379.01
2023-02-14T02:25:13.847Z,379.02
2023-02-14T02:25:24.844Z,379.02
2023-02-14T02:25:36.866Z,379.07
2023-02-14T02:25:48.831Z,379.09
2023-02-14T02:25:59.845Z,379.13
2023-02-14T02:26:11.833Z,379.13
2023-02-14T02:26:22.828Z,379.15
2023-02-14T02:26:33.848Z,379.19
2023-02-14T02:26:44.841Z,379.19
2023-02-14T02:26:55.861Z,379.20
2023-02-14T02:27:08.754Z,379.21
2023-02-14T02:27:18.847Z,379.26
2023-02-14T02:27:29.849Z,379.26
2023-02-14T02:27:40.855Z,379.31
2023-02-14T02:27:52.826Z,379.34
2023-02-14T02:28:03.836Z,379.39
2023-02-14T02:28:14.828Z,379.37
2023-02-14T02:28:25.840Z,379.42
2023-02-14T02:28:37.833Z,379.47
2023-02-14T02:28:48.837Z,379.52
2023-02-14T02:28:59.850Z,379.53
2023-02-14T02:29:10.843Z,379.57
2023-02-14T02:29:21.850Z,379.61
2023-02-14T02:29:33.856Z,379.64
2023-02-14T02:29:45.523Z,379.66
2023-02-14T02:29:56.881Z,379.68
2023-02-14T02:30:08.911Z,379.69
2023-02-14T02:30:19.913Z,379.71
2023-02-14T02:30:30.955Z,379.72
2023-02-14T02:30:41.933Z,379.74
2023-02-14T02:30:52.964Z,379.76
2023-02-14T02:31:04.277Z,379.76
2023-02-14T02:31:14.932Z,379.78
2023-02-14T02:31:26.067Z,379.80
2023-02-14T02:31:37.978Z,379.82
2023-02-14T02:31:49.941Z,379.83
2023-02-14T02:32:02.025Z,379.83
2023-02-14T02:32:13.966Z,379.85
2023-02-14T02:32:25.866Z,379.88
2023-02-14T02:32:37.836Z,379.89
2023-02-14T02:32:48.847Z,379.87
2023-02-14T02:32:59.853Z,379.92
2023-02-14T02:33:10.850Z,379.93
2023-02-14T02:33:22.842Z,379.95
2023-02-14T02:33:34.839Z,379.96
2023-02-14T02:33:45.858Z,379.98
2023-02-14T02:33:57.840Z,380.00
2023-02-14T02:34:08.837Z,380.02
2023-02-14T02:34:19.841Z,380.04
2023-02-14T02:34:30.846Z,380.06
2023-02-14T02:34:42.852Z,380.09
2023-02-14T02:34:54.861Z,380.10
2023-02-14T02:35:05.862Z,380.11
2023-02-14T02:35:17.840Z,380.15
2023-02-14T02:35:28.848Z,380.15
2023-02-14T02:35:39.859Z,380.15
2023-02-14T02:35:51.845Z,380.16
2023-02-14T02:36:02.855Z,380.17
2023-02-14T02:36:13.854Z,380.22
2023-02-14T02:36:25.867Z,380.21
2023-02-14T02:36:37.849Z,380.25
2023-02-14T02:36:48.868Z,380.28
2023-02-14T02:37:00.833Z,380.34
2023-02-14T02:37:11.835Z,380.36
2023-02-14T02:37:22.839Z,380.40